sensor_id;sensor_type;location;lat;lon;timestamp;noise_LAeq;noise_LA_min;noise_LA_max;noise_LA01;noise_LA95
68945;Laerm;55984;48.790;8.990;2023-03-03T00:01:25;29.19;26.31;36.13;;
68945;Laerm;55984;48.790;8.990;2023-03-03T00:03:51;29.20;26.30;35.91;;
68945;Laerm;55984;48.790;8.990;2023-03-03T00:06:16;29.28;26.23;36.02;;
68945;Laerm;55984;48.790;8.990;2023-03-03T00:08:42;29.18;26.39;35.92;;
68945;Laerm;55984;48.790;8.990;2023-03-03T00:11:09;29.15;26.37;35.96;;
68945;Laerm;55984;48.790;8.990;2023-03-03T00:13:49;29.14;26.44;35.92;;
68945;Laerm;55984;48.790;8.990;2023-03-03T00:16:24;29.07;26.43;36.10;;
68945;Laerm;55984;48.790;8.990;2023-03-03T00:18:51;29.24;26.39;36.17;;
68945;Laerm;55984;48.790;8.990;2023-03-03T00:21:34;29.06;26.38;35.90;;
68945;Laerm;55984;48.790;8.990;2023-03-03T00:27:00;29.36;26.52;35.95;;
68945;Laerm;55984;48.790;8.990;2023-03-03T00:29:37;29.04;26.39;42.55;;
68945;Laerm;55984;48.790;8.990;2023-03-03T00:32:37;28.89;26.34;36.28;;
68945;Laerm;55984;48.790;8.990;2023-03-03T00:35:27;28.87;26.40;36.09;;
68945;Laerm;55984;48.790;8.990;2023-03-03T00:37:57;29.14;26.45;35.98;;
68945;Laerm;55984;48.790;8.990;2023-03-03T00:40:44;28.98;26.38;35.98;;
68945;Laerm;55984;48.790;8.990;2023-03-03T00:43:22;29.10;26.43;36.11;;
68945;Laerm;55984;48.790;8.990;2023-03-03T00:45:50;29.19;26.33;35.85;;
68945;Laerm;55984;48.790;8.990;2023-03-03T00:48:41;29.12;26.38;46.55;;
68945;Laerm;55984;48.790;8.990;2023-03-03T00:53:48;29.24;26.43;35.94;;
68945;Laerm;55984;48.790;8.990;2023-03-03T00:56:14;29.30;26.53;36.18;;
68945;Laerm;55984;48.790;8.990;2023-03-03T00:58:39;29.28;26.56;35.84;;
68945;Laerm;55984;48.790;8.990;2023-03-03T01:01:04;29.25;26.50;36.01;;
68945;Laerm;55984;48.790;8.990;2023-03-03T01:03:30;29.27;26.54;36.17;;
68945;Laerm;55984;48.790;8.990;2023-03-03T01:05:56;29.29;26.61;36.02;;
68945;Laerm;55984;48.790;8.990;2023-03-03T01:08:21;29.29;26.53;35.89;;
68945;Laerm;55984;48.790;8.990;2023-03-03T01:10:56;29.24;26.53;35.78;;
68945;Laerm;55984;48.790;8.990;2023-03-03T01:13:27;29.18;26.42;36.07;;
68945;Laerm;55984;48.790;8.990;2023-03-03T01:15:54;33.52;26.39;57.72;;
68945;Laerm;55984;48.790;8.990;2023-03-03T01:18:19;32.42;26.48;53.41;;
68945;Laerm;55984;48.790;8.990;2023-03-03T01:20:45;29.31;26.34;36.88;;
68945;Laerm;55984;48.790;8.990;2023-03-03T01:23:10;29.17;26.40;35.96;;
68945;Laerm;55984;48.790;8.990;2023-03-03T01:25:36;29.17;26.42;35.92;;
68945;Laerm;55984;48.790;8.990;2023-03-03T01:28:02;29.18;26.46;36.04;;
68945;Laerm;55984;48.790;8.990;2023-03-03T01:30:28;29.24;26.43;36.15;;
68945;Laerm;55984;48.790;8.990;2023-03-03T01:32:53;29.18;26.45;36.08;;
68945;Laerm;55984;48.790;8.990;2023-03-03T01:35:19;29.21;26.40;35.87;;
68945;Laerm;55984;48.790;8.990;2023-03-03T01:37:44;29.30;26.39;36.70;;
68945;Laerm;55984;48.790;8.990;2023-03-03T01:40:23;29.11;26.42;36.15;;
68945;Laerm;55984;48.790;8.990;2023-03-03T01:42:48;29.17;26.47;36.07;;
68945;Laerm;55984;48.790;8.990;2023-03-03T01:45:41;29.16;26.34;35.84;;
68945;Laerm;55984;48.790;8.990;2023-03-03T01:48:13;28.89;26.31;35.68;;
68945;Laerm;55984;48.790;8.990;2023-03-03T01:53:43;28.94;26.37;35.83;;
68945;Laerm;55984;48.790;8.990;2023-03-03T01:56:11;29.16;26.40;35.88;;
68945;Laerm;55984;48.790;8.990;2023-03-03T01:58:57;29.12;26.42;35.77;;
68945;Laerm;55984;48.790;8.990;2023-03-03T02:01:26;28.98;26.40;35.95;;
68945;Laerm;55984;48.790;8.990;2023-03-03T02:03:53;29.19;26.34;35.94;;
68945;Laerm;55984;48.790;8.990;2023-03-03T02:06:27;29.15;26.37;36.20;;
68945;Laerm;55984;48.790;8.990;2023-03-03T02:08:59;29.19;26.41;36.22;;
68945;Laerm;55984;48.790;8.990;2023-03-03T02:11:27;29.15;26.40;35.98;;
68945;Laerm;55984;48.790;8.990;2023-03-03T02:13:54;29.16;26.46;35.84;;
68945;Laerm;55984;48.790;8.990;2023-03-03T02:16:20;29.13;26.39;35.74;;
68945;Laerm;55984;48.790;8.990;2023-03-03T02:18:45;29.15;26.39;35.91;;
68945;Laerm;55984;48.790;8.990;2023-03-03T02:21:13;29.11;26.35;35.65;;
68945;Laerm;55984;48.790;8.990;2023-03-03T02:24:08;29.02;26.30;35.95;;
68945;Laerm;55984;48.790;8.990;2023-03-03T02:26:41;35.00;26.34;57.98;;
68945;Laerm;55984;48.790;8.990;2023-03-03T02:29:08;31.97;26.33;54.35;;
68945;Laerm;55984;48.790;8.990;2023-03-03T02:31:34;29.20;26.39;35.92;;
68945;Laerm;55984;48.790;8.990;2023-03-03T02:34:00;29.15;26.43;35.90;;
68945;Laerm;55984;48.790;8.990;2023-03-03T02:36:29;29.13;26.40;35.71;;
68945;Laerm;55984;48.790;8.990;2023-03-03T02:39:16;29.06;26.31;36.28;;
68945;Laerm;55984;48.790;8.990;2023-03-03T02:42:12;29.00;26.44;35.78;;
68945;Laerm;55984;48.790;8.990;2023-03-03T02:44:38;28.93;26.44;36.03;;
68945;Laerm;55984;48.790;8.990;2023-03-03T02:47:04;29.14;26.43;35.91;;
68945;Laerm;55984;48.790;8.990;2023-03-03T02:49:33;29.20;26.46;35.92;;
68945;Laerm;55984;48.790;8.990;2023-03-03T02:52:00;29.16;26.34;35.92;;
68945;Laerm;55984;48.790;8.990;2023-03-03T02:54:28;29.16;26.39;35.96;;
68945;Laerm;55984;48.790;8.990;2023-03-03T02:56:58;29.15;26.43;35.81;;
68945;Laerm;55984;48.790;8.990;2023-03-03T02:59:24;29.20;26.35;35.97;;
68945;Laerm;55984;48.790;8.990;2023-03-03T03:01:50;29.10;26.40;35.75;;
68945;Laerm;55984;48.790;8.990;2023-03-03T03:04:24;29.12;26.34;36.20;;
68945;Laerm;55984;48.790;8.990;2023-03-03T03:06:51;29.15;26.38;36.08;;
68945;Laerm;55984;48.790;8.990;2023-03-03T03:09:18;29.17;26.40;35.78;;
68945;Laerm;55984;48.790;8.990;2023-03-03T03:11:44;29.20;26.38;35.86;;
68945;Laerm;55984;48.790;8.990;2023-03-03T03:14:12;29.14;26.48;36.09;;
68945;Laerm;55984;48.790;8.990;2023-03-03T03:16:38;29.18;26.33;35.63;;
68945;Laerm;55984;48.790;8.990;2023-03-03T03:19:04;29.18;26.37;35.77;;
68945;Laerm;55984;48.790;8.990;2023-03-03T03:21:30;29.18;26.42;36.12;;
68945;Laerm;55984;48.790;8.990;2023-03-03T03:23:56;29.22;26.48;35.69;;
68945;Laerm;55984;48.790;8.990;2023-03-03T03:26:22;29.20;26.46;36.09;;
68945;Laerm;55984;48.790;8.990;2023-03-03T03:28:49;29.16;26.44;35.84;;
68945;Laerm;55984;48.790;8.990;2023-03-03T03:31:16;29.19;26.27;35.99;;
68945;Laerm;55984;48.790;8.990;2023-03-03T03:33:42;29.24;26.46;36.04;;
68945;Laerm;55984;48.790;8.990;2023-03-03T03:36:08;29.21;26.42;35.85;;
68945;Laerm;55984;48.790;8.990;2023-03-03T03:38:35;29.18;26.33;35.83;;
68945;Laerm;55984;48.790;8.990;2023-03-03T03:41:02;29.18;26.39;35.76;;
68945;Laerm;55984;48.790;8.990;2023-03-03T03:43:29;29.23;26.47;35.90;;
68945;Laerm;55984;48.790;8.990;2023-03-03T03:45:54;29.16;26.48;36.02;;
68945;Laerm;55984;48.790;8.990;2023-03-03T03:48:20;29.12;26.37;35.94;;
68945;Laerm;55984;48.790;8.990;2023-03-03T03:50:47;29.19;26.18;36.12;;
68945;Laerm;55984;48.790;8.990;2023-03-03T03:53:12;29.22;26.41;36.02;;
68945;Laerm;55984;48.790;8.990;2023-03-03T03:55:38;29.10;26.44;35.78;;
68945;Laerm;55984;48.790;8.990;2023-03-03T03:58:03;29.13;26.46;35.84;;
68945;Laerm;55984;48.790;8.990;2023-03-03T04:00:29;29.12;26.43;36.35;;
68945;Laerm;55984;48.790;8.990;2023-03-03T04:02:54;29.18;26.36;36.50;;
68945;Laerm;55984;48.790;8.990;2023-03-03T04:05:20;32.19;26.42;53.29;;
68945;Laerm;55984;48.790;8.990;2023-03-03T04:07:45;36.02;26.43;61.54;;
68945;Laerm;55984;48.790;8.990;2023-03-03T04:10:11;29.16;26.40;35.88;;
68945;Laerm;55984;48.790;8.990;2023-03-03T04:12:36;29.17;26.30;35.76;;
68945;Laerm;55984;48.790;8.990;2023-03-03T04:15:10;29.16;26.48;35.62;;
68945;Laerm;55984;48.790;8.990;2023-03-03T04:17:36;29.18;26.47;37.43;;
68945;Laerm;55984;48.790;8.990;2023-03-03T04:20:02;29.20;26.28;35.65;;
68945;Laerm;55984;48.790;8.990;2023-03-03T04:22:29;29.21;26.37;35.99;;
68945;Laerm;55984;48.790;8.990;2023-03-03T04:25:03;29.11;26.33;35.79;;
68945;Laerm;55984;48.790;8.990;2023-03-03T04:27:31;29.24;26.36;35.96;;
68945;Laerm;55984;48.790;8.990;2023-03-03T04:29:56;29.18;26.29;36.18;;
68945;Laerm;55984;48.790;8.990;2023-03-03T04:32:22;29.17;26.38;36.15;;
68945;Laerm;55984;48.790;8.990;2023-03-03T04:34:47;29.15;26.45;35.90;;
68945;Laerm;55984;48.790;8.990;2023-03-03T04:37:13;29.15;26.32;35.83;;
68945;Laerm;55984;48.790;8.990;2023-03-03T04:39:38;29.18;26.36;36.04;;
68945;Laerm;55984;48.790;8.990;2023-03-03T04:42:04;29.16;26.44;35.74;;
68945;Laerm;55984;48.790;8.990;2023-03-03T04:44:29;29.16;26.40;36.10;;
68945;Laerm;55984;48.790;8.990;2023-03-03T04:46:54;29.18;26.43;36.02;;
68945;Laerm;55984;48.790;8.990;2023-03-03T04:49:20;29.13;26.44;35.59;;
68945;Laerm;55984;48.790;8.990;2023-03-03T04:51:45;29.16;26.45;35.85;;
68945;Laerm;55984;48.790;8.990;2023-03-03T04:54:11;29.16;26.43;35.78;;
68945;Laerm;55984;48.790;8.990;2023-03-03T04:56:36;29.14;26.42;35.86;;
68945;Laerm;55984;48.790;8.990;2023-03-03T04:59:02;29.17;26.36;36.00;;
68945;Laerm;55984;48.790;8.990;2023-03-03T05:01:27;29.13;26.49;35.89;;
68945;Laerm;55984;48.790;8.990;2023-03-03T05:03:52;29.15;26.41;35.69;;
68945;Laerm;55984;48.790;8.990;2023-03-03T05:06:18;29.16;26.46;35.88;;
68945;Laerm;55984;48.790;8.990;2023-03-03T05:08:44;29.21;26.49;35.98;;
68945;Laerm;55984;48.790;8.990;2023-03-03T05:11:10;31.05;26.46;56.36;;
68945;Laerm;55984;48.790;8.990;2023-03-03T05:13:36;29.18;26.50;35.83;;
68945;Laerm;55984;48.790;8.990;2023-03-03T05:16:01;29.16;26.45;35.92;;
68945;Laerm;55984;48.790;8.990;2023-03-03T05:18:27;29.31;26.45;35.97;;
68945;Laerm;55984;48.790;8.990;2023-03-03T05:20:53;29.33;26.54;36.00;;
68945;Laerm;55984;48.790;8.990;2023-03-03T05:23:19;29.34;26.38;35.94;;
68945;Laerm;55984;48.790;8.990;2023-03-03T05:25:47;29.25;26.52;35.87;;
68945;Laerm;55984;48.790;8.990;2023-03-03T05:28:13;29.22;26.40;35.99;;
68945;Laerm;55984;48.790;8.990;2023-03-03T05:30:38;29.23;26.53;35.85;;
68945;Laerm;55984;48.790;8.990;2023-03-03T05:33:05;29.19;26.44;35.68;;
68945;Laerm;55984;48.790;8.990;2023-03-03T05:35:31;29.22;26.45;36.15;;
68945;Laerm;55984;48.790;8.990;2023-03-03T05:37:57;29.24;26.37;35.93;;
68945;Laerm;55984;48.790;8.990;2023-03-03T05:40:24;29.17;26.48;35.77;;
68945;Laerm;55984;48.790;8.990;2023-03-03T05:42:50;29.24;26.50;35.90;;
68945;Laerm;55984;48.790;8.990;2023-03-03T05:45:16;29.31;26.51;36.11;;
68945;Laerm;55984;48.790;8.990;2023-03-03T05:47:44;29.30;26.56;36.23;;
68945;Laerm;55984;48.790;8.990;2023-03-03T05:50:10;29.37;26.41;35.92;;
68945;Laerm;55984;48.790;8.990;2023-03-03T05:52:36;29.36;26.48;35.90;;
68945;Laerm;55984;48.790;8.990;2023-03-03T05:55:02;29.26;26.34;36.02;;
68945;Laerm;55984;48.790;8.990;2023-03-03T05:57:27;29.30;26.44;35.91;;
68945;Laerm;55984;48.790;8.990;2023-03-03T05:59:53;29.26;26.40;35.75;;
68945;Laerm;55984;48.790;8.990;2023-03-03T06:02:18;39.53;26.59;58.68;;
68945;Laerm;55984;48.790;8.990;2023-03-03T06:04:44;36.88;26.50;57.63;;
68945;Laerm;55984;48.790;8.990;2023-03-03T06:07:09;29.42;26.44;36.08;;
68945;Laerm;55984;48.790;8.990;2023-03-03T06:09:35;29.63;26.54;43.17;;
68945;Laerm;55984;48.790;8.990;2023-03-03T06:12:01;32.99;26.48;55.51;;
68945;Laerm;55984;48.790;8.990;2023-03-03T06:14:26;32.76;26.58;49.00;;
68945;Laerm;55984;48.790;8.990;2023-03-03T06:16:52;40.64;26.70;53.62;;
68945;Laerm;55984;48.790;8.990;2023-03-03T06:19:17;30.01;26.57;45.75;;
68945;Laerm;55984;48.790;8.990;2023-03-03T06:21:42;41.98;26.57;71.20;;
68945;Laerm;55984;48.790;8.990;2023-03-03T06:24:08;33.94;26.68;51.28;;
68945;Laerm;55984;48.790;8.990;2023-03-03T06:26:33;36.81;26.60;59.34;;
68945;Laerm;55984;48.790;8.990;2023-03-03T06:28:59;37.95;27.11;61.68;;
68945;Laerm;55984;48.790;8.990;2023-03-03T06:31:26;42.69;26.69;71.24;;
68945;Laerm;55984;48.790;8.990;2023-03-03T06:33:52;32.66;26.41;53.38;;
68945;Laerm;55984;48.790;8.990;2023-03-03T06:36:19;32.61;26.56;49.27;;
68945;Laerm;55984;48.790;8.990;2023-03-03T06:38:44;30.10;26.46;45.79;;
68945;Laerm;55984;48.790;8.990;2023-03-03T06:41:10;33.69;26.56;54.25;;
68945;Laerm;55984;48.790;8.990;2023-03-03T06:43:36;34.72;26.58;54.21;;
68945;Laerm;55984;48.790;8.990;2023-03-03T06:46:03;31.53;26.55;48.36;;
68945;Laerm;55984;48.790;8.990;2023-03-03T06:48:31;35.13;26.55;53.65;;
68945;Laerm;55984;48.790;8.990;2023-03-03T06:50:59;29.74;26.55;39.07;;
68945;Laerm;55984;48.790;8.990;2023-03-03T06:53:26;29.97;26.59;41.21;;
68945;Laerm;55984;48.790;8.990;2023-03-03T06:55:53;30.38;26.52;50.07;;
68945;Laerm;55984;48.790;8.990;2023-03-03T06:58:20;29.66;26.49;39.36;;
68945;Laerm;55984;48.790;8.990;2023-03-03T07:00:55;29.73;26.54;38.48;;
68945;Laerm;55984;48.790;8.990;2023-03-03T07:03:24;29.70;26.58;40.65;;
68945;Laerm;55984;48.790;8.990;2023-03-03T07:05:51;30.75;26.60;43.12;;
68945;Laerm;55984;48.790;8.990;2023-03-03T07:08:22;30.06;26.48;43.31;;
68945;Laerm;55984;48.790;8.990;2023-03-03T07:10:49;34.48;26.58;55.03;;
68945;Laerm;55984;48.790;8.990;2023-03-03T07:13:26;38.77;26.71;58.23;;
68945;Laerm;55984;48.790;8.990;2023-03-03T07:15:55;36.51;26.74;54.51;;
68945;Laerm;55984;48.790;8.990;2023-03-03T07:18:39;36.88;26.66;59.05;;
68945;Laerm;55984;48.790;8.990;2023-03-03T07:21:35;32.01;26.63;54.38;;
68945;Laerm;55984;48.790;8.990;2023-03-03T07:24:26;33.73;26.69;58.83;;
68945;Laerm;55984;48.790;8.990;2023-03-03T07:27:24;35.84;26.61;59.15;;
68945;Laerm;55984;48.790;8.990;2023-03-03T07:29:53;42.53;26.69;60.58;;
68945;Laerm;55984;48.790;8.990;2023-03-03T07:32:44;41.57;29.19;56.72;;
68945;Laerm;55984;48.790;8.990;2023-03-03T07:35:39;36.70;27.56;57.23;;
68945;Laerm;55984;48.790;8.990;2023-03-03T07:38:37;34.17;27.62;55.39;;
68945;Laerm;55984;48.790;8.990;2023-03-03T07:41:11;36.03;27.77;51.83;;
68945;Laerm;55984;48.790;8.990;2023-03-03T07:43:45;33.42;27.60;48.62;;
68945;Laerm;55984;48.790;8.990;2023-03-03T07:46:50;50.37;27.57;73.95;;
68945;Laerm;55984;48.790;8.990;2023-03-03T07:51:56;48.80;34.83;63.03;;
68945;Laerm;55984;48.790;8.990;2023-03-03T07:54:40;50.42;43.40;60.94;;
68945;Laerm;55984;48.790;8.990;2023-03-03T07:59:51;47.49;40.91;58.97;;
68945;Laerm;55984;48.790;8.990;2023-03-03T08:11:14;51.61;27.66;75.77;;
68945;Laerm;55984;48.790;8.990;2023-03-03T08:13:41;35.99;27.39;58.46;;
68945;Laerm;55984;48.790;8.990;2023-03-03T08:18:49;49.43;27.42;75.55;;
68945;Laerm;55984;48.790;8.990;2023-03-03T08:21:19;42.86;27.28;66.26;;
68945;Laerm;55984;48.790;8.990;2023-03-03T08:23:45;37.59;27.15;50.56;;
68945;Laerm;55984;48.790;8.990;2023-03-03T08:26:13;39.95;27.30;66.21;;
68945;Laerm;55984;48.790;8.990;2023-03-03T08:28:39;54.54;27.55;74.48;;
68945;Laerm;55984;48.790;8.990;2023-03-03T08:31:04;43.45;27.69;68.64;;
68945;Laerm;55984;48.790;8.990;2023-03-03T08:33:30;34.84;27.38;49.55;;
68945;Laerm;55984;48.790;8.990;2023-03-03T08:35:55;33.85;27.22;48.22;;
68945;Laerm;55984;48.790;8.990;2023-03-03T08:38:21;34.12;27.22;49.09;;
68945;Laerm;55984;48.790;8.990;2023-03-03T08:40:48;32.01;27.09;41.29;;
68945;Laerm;55984;48.790;8.990;2023-03-03T08:43:15;32.23;27.21;43.24;;
68945;Laerm;55984;48.790;8.990;2023-03-03T08:45:50;32.17;27.22;43.28;;
68945;Laerm;55984;48.790;8.990;2023-03-03T08:48:17;49.54;27.57;73.27;;
68945;Laerm;55984;48.790;8.990;2023-03-03T08:50:43;33.68;27.25;46.02;;
68945;Laerm;55984;48.790;8.990;2023-03-03T08:53:10;39.59;27.35;57.22;;
68945;Laerm;55984;48.790;8.990;2023-03-03T08:55:36;51.66;27.67;75.97;;
68945;Laerm;55984;48.790;8.990;2023-03-03T08:58:01;42.15;27.34;69.88;;
68945;Laerm;55984;48.790;8.990;2023-03-03T09:00:27;46.27;27.26;70.86;;
68945;Laerm;55984;48.790;8.990;2023-03-03T09:02:54;41.66;27.23;60.68;;
68945;Laerm;55984;48.790;8.990;2023-03-03T09:05:20;31.48;27.19;43.88;;
68945;Laerm;55984;48.790;8.990;2023-03-03T09:07:48;31.98;27.25;49.56;;
68945;Laerm;55984;48.790;8.990;2023-03-03T09:10:18;32.13;27.22;45.01;;
68945;Laerm;55984;48.790;8.990;2023-03-03T09:12:46;30.85;27.14;48.08;;
68945;Laerm;55984;48.790;8.990;2023-03-03T09:17:48;32.18;28.23;43.64;;
68945;Laerm;55984;48.790;8.990;2023-03-03T09:20:28;31.07;28.34;42.65;;
68945;Laerm;55984;48.790;8.990;2023-03-03T09:22:55;34.06;28.05;54.40;;
68945;Laerm;55984;48.790;8.990;2023-03-03T09:25:41;36.22;27.31;59.72;;
68945;Laerm;55984;48.790;8.990;2023-03-03T09:28:25;37.89;27.10;64.16;;
68945;Laerm;55984;48.790;8.990;2023-03-03T09:30:52;42.17;27.11;63.22;;
68945;Laerm;55984;48.790;8.990;2023-03-03T09:33:42;42.89;27.61;60.62;;
68945;Laerm;55984;48.790;8.990;2023-03-03T09:36:35;38.79;27.19;65.37;;
68945;Laerm;55984;48.790;8.990;2023-03-03T09:42:22;46.00;27.37;64.30;;
68945;Laerm;55984;48.790;8.990;2023-03-03T09:48:14;36.77;27.42;59.95;;
68945;Laerm;55984;48.790;8.990;2023-03-03T09:58:15;46.68;27.37;64.67;;
68945;Laerm;55984;48.790;8.990;2023-03-03T10:04:03;47.27;27.43;65.15;;
68945;Laerm;55984;48.790;8.990;2023-03-03T10:19:02;36.29;27.54;62.95;;
68945;Laerm;55984;48.790;8.990;2023-03-03T10:21:50;37.30;27.84;52.09;;
68945;Laerm;55984;48.790;8.990;2023-03-03T10:24:35;34.22;28.38;49.50;;
68945;Laerm;55984;48.790;8.990;2023-03-03T10:27:41;33.13;27.69;47.25;;
68945;Laerm;55984;48.790;8.990;2023-03-03T10:30:38;56.28;29.81;82.61;;
68945;Laerm;55984;48.790;8.990;2023-03-03T10:33:20;33.24;29.68;44.87;;
68945;Laerm;55984;48.790;8.990;2023-03-03T10:36:08;40.52;30.14;63.23;;
68945;Laerm;55984;48.790;8.990;2023-03-03T10:39:18;53.15;27.31;76.09;;
68945;Laerm;55984;48.790;8.990;2023-03-03T10:48:06;30.08;27.07;41.51;;
68945;Laerm;55984;48.790;8.990;2023-03-03T10:50:50;34.76;27.16;53.10;;
68945;Laerm;55984;48.790;8.990;2023-03-03T11:00:07;31.32;27.37;41.05;;
68945;Laerm;55984;48.790;8.990;2023-03-03T11:06:00;35.58;27.48;58.78;;
68945;Laerm;55984;48.790;8.990;2023-03-03T11:08:40;35.01;27.32;55.69;;
68945;Laerm;55984;48.790;8.990;2023-03-03T11:14:12;30.78;27.59;36.62;;
68945;Laerm;55984;48.790;8.990;2023-03-03T11:17:09;37.22;27.70;57.77;;
68945;Laerm;55984;48.790;8.990;2023-03-03T11:28:08;36.04;27.65;57.86;;
68945;Laerm;55984;48.790;8.990;2023-03-03T11:31:29;34.21;27.50;51.59;;
68945;Laerm;55984;48.790;8.990;2023-03-03T11:34:41;34.22;27.56;52.54;;
68945;Laerm;55984;48.790;8.990;2023-03-03T11:46:08;45.54;28.57;68.13;;
68945;Laerm;55984;48.790;8.990;2023-03-03T11:49:02;49.35;28.51;70.97;;
68945;Laerm;55984;48.790;8.990;2023-03-03T11:55:09;39.68;28.74;67.94;;
68945;Laerm;55984;48.790;8.990;2023-03-03T12:11:46;35.33;27.14;54.96;;
68945;Laerm;55984;48.790;8.990;2023-03-03T12:14:42;39.97;27.19;57.83;;
68945;Laerm;55984;48.790;8.990;2023-03-03T12:20:08;34.23;27.23;51.08;;
68945;Laerm;55984;48.790;8.990;2023-03-03T12:25:48;34.37;27.17;49.96;;
68945;Laerm;55984;48.790;8.990;2023-03-03T12:28:27;32.77;27.22;49.39;;
68945;Laerm;55984;48.790;8.990;2023-03-03T12:31:08;31.97;26.97;49.36;;
68945;Laerm;55984;48.790;8.990;2023-03-03T12:33:54;33.84;27.17;54.56;;
68945;Laerm;55984;48.790;8.990;2023-03-03T12:36:49;33.74;27.14;47.43;;
68945;Laerm;55984;48.790;8.990;2023-03-03T12:39:55;34.03;26.93;53.83;;
68945;Laerm;55984;48.790;8.990;2023-03-03T12:45:36;31.78;26.90;50.09;;
68945;Laerm;55984;48.790;8.990;2023-03-03T12:48:15;33.22;26.99;50.51;;
68945;Laerm;55984;48.790;8.990;2023-03-03T12:55:59;31.68;27.06;47.01;;
68945;Laerm;55984;48.790;8.990;2023-03-03T13:01:18;38.56;27.00;64.55;;
68945;Laerm;55984;48.790;8.990;2023-03-03T13:04:04;35.14;27.19;55.84;;
68945;Laerm;55984;48.790;8.990;2023-03-03T13:06:52;47.80;27.05;61.39;;
68945;Laerm;55984;48.790;8.990;2023-03-03T13:10:12;44.14;27.79;60.05;;
68945;Laerm;55984;48.790;8.990;2023-03-03T13:15:34;32.63;27.07;56.02;;
68945;Laerm;55984;48.790;8.990;2023-03-03T13:20:56;34.07;27.00;54.85;;
68945;Laerm;55984;48.790;8.990;2023-03-03T13:29:33;46.72;27.30;73.18;;
68945;Laerm;55984;48.790;8.990;2023-03-03T13:32:07;46.93;27.21;60.88;;
68945;Laerm;55984;48.790;8.990;2023-03-03T13:35:05;47.06;27.32;64.63;;
68945;Laerm;55984;48.790;8.990;2023-03-03T13:37:37;57.30;27.54;77.41;;
68945;Laerm;55984;48.790;8.990;2023-03-03T13:42:49;59.90;27.45;77.15;;
68945;Laerm;55984;48.790;8.990;2023-03-03T13:48:14;54.12;27.31;76.20;;
68945;Laerm;55984;48.790;8.990;2023-03-03T13:50:57;54.48;27.21;78.37;;
68945;Laerm;55984;48.790;8.990;2023-03-03T13:54:05;54.54;27.11;73.25;;
68945;Laerm;55984;48.790;8.990;2023-03-03T13:57:03;46.96;26.98;68.26;;
68945;Laerm;55984;48.790;8.990;2023-03-03T14:05:46;50.99;27.02;69.50;;
68945;Laerm;55984;48.790;8.990;2023-03-03T14:08:47;53.26;27.36;73.98;;
68945;Laerm;55984;48.790;8.990;2023-03-03T14:14:46;56.45;27.20;74.36;;
68945;Laerm;55984;48.790;8.990;2023-03-03T14:20:27;54.20;27.20;71.81;;
68945;Laerm;55984;48.790;8.990;2023-03-03T14:22:58;53.82;28.27;77.11;;
68945;Laerm;55984;48.790;8.990;2023-03-03T14:25:25;53.85;30.11;71.68;;
68945;Laerm;55984;48.790;8.990;2023-03-03T14:28:08;42.89;27.22;59.50;;
68945;Laerm;55984;48.790;8.990;2023-03-03T14:30:41;47.10;32.02;61.46;;
68945;Laerm;55984;48.790;8.990;2023-03-03T14:35:40;33.57;27.10;52.71;;
68945;Laerm;55984;48.790;8.990;2023-03-03T14:38:19;38.52;27.09;61.32;;
68945;Laerm;55984;48.790;8.990;2023-03-03T14:40:47;43.76;27.30;70.39;;
68945;Laerm;55984;48.790;8.990;2023-03-03T14:43:26;50.16;27.49;68.15;;
68945;Laerm;55984;48.790;8.990;2023-03-03T14:46:29;48.35;30.65;70.43;;
68945;Laerm;55984;48.790;8.990;2023-03-03T14:49:42;50.05;27.09;69.64;;
68945;Laerm;55984;48.790;8.990;2023-03-03T14:51:48;55.42;31.95;75.87;;
68945;Laerm;55984;48.790;8.990;2023-03-03T14:54:26;53.18;27.12;73.93;;
68945;Laerm;55984;48.790;8.990;2023-03-03T14:59:27;55.06;32.16;76.19;;
68945;Laerm;55984;48.790;8.990;2023-03-03T15:04:44;32.06;27.16;40.01;;
68945;Laerm;55984;48.790;8.990;2023-03-03T15:07:34;54.28;27.05;81.99;;
68945;Laerm;55984;48.790;8.990;2023-03-03T15:10:07;49.81;27.20;69.74;;
68945;Laerm;55984;48.790;8.990;2023-03-03T15:12:37;35.42;27.14;62.48;;
68945;Laerm;55984;48.790;8.990;2023-03-03T15:20:41;36.19;27.30;61.11;;
68945;Laerm;55984;48.790;8.990;2023-03-03T15:26:16;51.17;27.49;73.46;;
68945;Laerm;55984;48.790;8.990;2023-03-03T15:34:47;55.11;27.34;81.00;;
68945;Laerm;55984;48.790;8.990;2023-03-03T15:37:45;40.17;27.21;65.96;;
68945;Laerm;55984;48.790;8.990;2023-03-03T15:40:36;34.96;27.19;55.32;;
68945;Laerm;55984;48.790;8.990;2023-03-03T15:43:36;31.29;27.15;52.62;;
68945;Laerm;55984;48.790;8.990;2023-03-03T15:49:19;58.43;27.97;76.74;;
68945;Laerm;55984;48.790;8.990;2023-03-03T15:52:11;54.78;27.66;78.08;;
68945;Laerm;55984;48.790;8.990;2023-03-03T15:58:01;46.41;27.97;71.53;;
68945;Laerm;55984;48.790;8.990;2023-03-03T16:00:29;36.03;28.10;51.02;;
68945;Laerm;55984;48.790;8.990;2023-03-03T16:03:18;44.68;28.11;73.11;;
68945;Laerm;55984;48.790;8.990;2023-03-03T16:05:54;46.10;27.69;70.37;;
68945;Laerm;55984;48.790;8.990;2023-03-03T16:09:01;41.27;27.69;66.92;;
68945;Laerm;55984;48.790;8.990;2023-03-03T16:16:03;35.10;27.46;54.53;;
68945;Laerm;55984;48.790;8.990;2023-03-03T16:24:04;38.61;27.66;64.80;;
68945;Laerm;55984;48.790;8.990;2023-03-03T16:26:35;34.37;27.79;57.86;;
68945;Laerm;55984;48.790;8.990;2023-03-03T16:35:22;59.73;27.49;74.77;;
68945;Laerm;55984;48.790;8.990;2023-03-03T16:38:03;61.04;28.19;77.89;;
68945;Laerm;55984;48.790;8.990;2023-03-03T16:40:46;58.48;27.98;75.99;;
68945;Laerm;55984;48.790;8.990;2023-03-03T16:43:41;56.41;28.63;71.63;;
68945;Laerm;55984;48.790;8.990;2023-03-03T16:46:27;37.14;28.37;56.04;;
68945;Laerm;55984;48.790;8.990;2023-03-03T16:49:26;35.77;28.81;48.10;;
68945;Laerm;55984;48.790;8.990;2023-03-03T16:52:09;42.57;27.85;68.49;;
68945;Laerm;55984;48.790;8.990;2023-03-03T17:02:59;33.05;27.72;53.61;;
68945;Laerm;55984;48.790;8.990;2023-03-03T17:08:47;46.01;27.65;63.38;;
68945;Laerm;55984;48.790;8.990;2023-03-03T17:11:54;38.63;27.85;59.68;;
68945;Laerm;55984;48.790;8.990;2023-03-03T17:20:36;48.94;27.83;78.31;;
68945;Laerm;55984;48.790;8.990;2023-03-03T17:23:12;34.77;27.54;58.25;;
68945;Laerm;55984;48.790;8.990;2023-03-03T17:35:11;38.10;27.56;64.20;;
68945;Laerm;55984;48.790;8.990;2023-03-03T17:40:41;53.35;27.81;76.99;;
68945;Laerm;55984;48.790;8.990;2023-03-03T17:55:15;30.00;27.58;36.46;;
68945;Laerm;55984;48.790;8.990;2023-03-03T18:01:18;42.61;27.89;58.91;;
68945;Laerm;55984;48.790;8.990;2023-03-03T18:04:08;48.42;27.53;70.88;;
68945;Laerm;55984;48.790;8.990;2023-03-03T18:07:27;55.76;27.85;79.97;;
68945;Laerm;55984;48.790;8.990;2023-03-03T18:13:25;37.01;27.62;60.88;;
68945;Laerm;55984;48.790;8.990;2023-03-03T18:16:24;33.30;27.53;48.32;;
68945;Laerm;55984;48.790;8.990;2023-03-03T18:19:33;32.99;27.50;49.15;;
68945;Laerm;55984;48.790;8.990;2023-03-03T18:22:10;41.22;27.49;61.65;;
68945;Laerm;55984;48.790;8.990;2023-03-03T18:24:55;35.92;27.36;54.20;;
68945;Laerm;55984;48.790;8.990;2023-03-03T18:35:43;42.09;27.41;67.73;;
68945;Laerm;55984;48.790;8.990;2023-03-03T18:41:02;35.46;27.31;54.04;;
68945;Laerm;55984;48.790;8.990;2023-03-03T18:48:57;34.50;27.17;54.95;;
68945;Laerm;55984;48.790;8.990;2023-03-03T18:54:23;38.31;27.32;60.66;;